sensor_id;sensor_type;location;lat;lon;timestamp;temperature;humidity
21189;DHT22;39071;52.420;20.896;2023-04-07T00:00:07;5.20;99.90
21189;DHT22;39071;52.420;20.896;2023-04-07T00:02:33;5.20;99.90
21189;DHT22;39071;52.420;20.896;2023-04-07T00:04:59;5.20;99.90
21189;DHT22;39071;52.420;20.896;2023-04-07T00:07:27;5.20;99.90
21189;DHT22;39071;52.420;20.896;2023-04-07T00:09:53;5.30;99.90
21189;DHT22;39071;52.420;20.896;2023-04-07T00:12:18;5.40;99.90
21189;DHT22;39071;52.420;20.896;2023-04-07T00:14:44;5.40;99.90
21189;DHT22;39071;52.420;20.896;2023-04-07T00:17:10;5.40;99.90
21189;DHT22;39071;52.420;20.896;2023-04-07T00:19:35;5.50;99.90
21189;DHT22;39071;52.420;20.896;2023-04-07T00:22:01;5.50;99.90
21189;DHT22;39071;52.420;20.896;2023-04-07T00:24:27;5.50;99.90
21189;DHT22;39071;52.420;20.896;2023-04-07T00:26:53;5.60;99.90
21189;DHT22;39071;52.420;20.896;2023-04-07T00:29:18;5.50;99.90
21189;DHT22;39071;52.420;20.896;2023-04-07T00:31:44;5.60;99.90
21189;DHT22;39071;52.420;20.896;2023-04-07T00:34:10;5.70;99.90
21189;DHT22;39071;52.420;20.896;2023-04-07T00:36:35;5.70;99.90
21189;DHT22;39071;52.420;20.896;2023-04-07T00:39:01;5.80;99.90
21189;DHT22;39071;52.420;20.896;2023-04-07T00:41:27;5.80;99.90
21189;DHT22;39071;52.420;20.896;2023-04-07T00:43:52;5.80;99.90
21189;DHT22;39071;52.420;20.896;2023-04-07T00:46:21;5.80;99.90
21189;DHT22;39071;52.420;20.896;2023-04-07T00:48:47;5.90;99.90
21189;DHT22;39071;52.420;20.896;2023-04-07T00:51:13;5.90;99.90
21189;DHT22;39071;52.420;20.896;2023-04-07T00:53:40;5.90;99.90
21189;DHT22;39071;52.420;20.896;2023-04-07T00:56:06;6.40;99.90
21189;DHT22;39071;52.420;20.896;2023-04-07T00:58:32;6.00;99.90
21189;DHT22;39071;52.420;20.896;2023-04-07T01:01:23;5.90;99.90
21189;DHT22;39071;52.420;20.896;2023-04-07T01:03:51;5.90;99.90
21189;DHT22;39071;52.420;20.896;2023-04-07T01:06:19;5.90;99.90
21189;DHT22;39071;52.420;20.896;2023-04-07T01:08:59;5.90;99.90
21189;DHT22;39071;52.420;20.896;2023-04-07T01:11:31;5.90;99.90
21189;DHT22;39071;52.420;20.896;2023-04-07T01:14:00;5.90;99.90
21189;DHT22;39071;52.420;20.896;2023-04-07T01:16:41;5.90;99.90
21189;DHT22;39071;52.420;20.896;2023-04-07T01:21:49;5.80;99.90
21189;DHT22;39071;52.420;20.896;2023-04-07T01:24:44;5.80;99.90
21189;DHT22;39071;52.420;20.896;2023-04-07T01:30:00;5.90;99.90
21189;DHT22;39071;52.420;20.896;2023-04-07T01:32:29;6.00;99.90
21189;DHT22;39071;52.420;20.896;2023-04-07T01:34:56;6.00;99.90
21189;DHT22;39071;52.420;20.896;2023-04-07T01:37:24;6.00;99.90
21189;DHT22;39071;52.420;20.896;2023-04-07T01:39:51;5.90;99.90
21189;DHT22;39071;52.420;20.896;2023-04-07T01:42:18;6.00;99.90
21189;DHT22;39071;52.420;20.896;2023-04-07T01:44:44;6.00;99.90
21189;DHT22;39071;52.420;20.896;2023-04-07T01:47:11;6.00;99.90
21189;DHT22;39071;52.420;20.896;2023-04-07T01:49:37;6.00;99.90
21189;DHT22;39071;52.420;20.896;2023-04-07T01:52:05;6.00;99.90
21189;DHT22;39071;52.420;20.896;2023-04-07T01:54:32;6.00;99.90
21189;DHT22;39071;52.420;20.896;2023-04-07T01:56:58;6.00;99.90
21189;DHT22;39071;52.420;20.896;2023-04-07T01:59:26;6.10;99.90
21189;DHT22;39071;52.420;20.896;2023-04-07T02:01:52;6.00;99.90
21189;DHT22;39071;52.420;20.896;2023-04-07T02:07:28;5.90;99.90
21189;DHT22;39071;52.420;20.896;2023-04-07T02:09:57;6.00;99.90
21189;DHT22;39071;52.420;20.896;2023-04-07T02:12:26;6.00;99.90
21189;DHT22;39071;52.420;20.896;2023-04-07T02:14:54;6.00;99.90
21189;DHT22;39071;52.420;20.896;2023-04-07T02:17:23;6.00;99.90
21189;DHT22;39071;52.420;20.896;2023-04-07T02:19:50;6.00;99.90
21189;DHT22;39071;52.420;20.896;2023-04-07T02:22:17;6.10;99.90
21189;DHT22;39071;52.420;20.896;2023-04-07T02:24:43;6.10;99.90
21189;DHT22;39071;52.420;20.896;2023-04-07T02:27:09;6.10;99.90
21189;DHT22;39071;52.420;20.896;2023-04-07T02:29:35;6.10;99.90
21189;DHT22;39071;52.420;20.896;2023-04-07T02:32:00;6.10;99.90
21189;DHT22;39071;52.420;20.896;2023-04-07T02:34:26;6.20;99.90
21189;DHT22;39071;52.420;20.896;2023-04-07T02:36:52;6.20;99.90
21189;DHT22;39071;52.420;20.896;2023-04-07T02:39:18;6.30;99.90
21189;DHT22;39071;52.420;20.896;2023-04-07T02:41:43;6.40;99.90
21189;DHT22;39071;52.420;20.896;2023-04-07T02:44:09;6.40;99.90
21189;DHT22;39071;52.420;20.896;2023-04-07T02:46:35;6.40;99.90
21189;DHT22;39071;52.420;20.896;2023-04-07T02:49:01;6.40;99.90
21189;DHT22;39071;52.420;20.896;2023-04-07T02:51:27;6.40;99.90
21189;DHT22;39071;52.420;20.896;2023-04-07T02:53:53;6.40;99.90
21189;DHT22;39071;52.420;20.896;2023-04-07T02:56:19;6.40;99.90
21189;DHT22;39071;52.420;20.896;2023-04-07T02:58:45;6.40;99.90
21189;DHT22;39071;52.420;20.896;2023-04-07T03:01:11;6.40;99.90
21189;DHT22;39071;52.420;20.896;2023-04-07T03:03:36;6.50;99.90
21189;DHT22;39071;52.420;20.896;2023-04-07T03:06:04;6.50;99.90
21189;DHT22;39071;52.420;20.896;2023-04-07T03:08:30;6.50;99.90
21189;DHT22;39071;52.420;20.896;2023-04-07T03:10:55;6.50;99.90
21189;DHT22;39071;52.420;20.896;2023-04-07T03:13:21;6.50;99.90
21189;DHT22;39071;52.420;20.896;2023-04-07T03:15:47;6.50;99.90
21189;DHT22;39071;52.420;20.896;2023-04-07T03:18:13;6.20;99.90
21189;DHT22;39071;52.420;20.896;2023-04-07T03:20:39;6.60;99.90
21189;DHT22;39071;52.420;20.896;2023-04-07T03:23:06;6.70;99.90
21189;DHT22;39071;52.420;20.896;2023-04-07T03:25:32;6.60;99.90
21189;DHT22;39071;52.420;20.896;2023-04-07T03:27:58;6.60;99.90
21189;DHT22;39071;52.420;20.896;2023-04-07T03:30:24;6.60;99.90
21189;DHT22;39071;52.420;20.896;2023-04-07T03:32:50;6.60;99.90
21189;DHT22;39071;52.420;20.896;2023-04-07T03:35:15;6.60;99.90
21189;DHT22;39071;52.420;20.896;2023-04-07T03:37:41;6.60;99.90
21189;DHT22;39071;52.420;20.896;2023-04-07T03:40:07;6.70;99.90
21189;DHT22;39071;52.420;20.896;2023-04-07T03:42:33;6.70;99.90
21189;DHT22;39071;52.420;20.896;2023-04-07T03:44:59;6.80;99.90
21189;DHT22;39071;52.420;20.896;2023-04-07T03:47:25;6.80;99.90
21189;DHT22;39071;52.420;20.896;2023-04-07T03:49:50;6.80;99.90
21189;DHT22;39071;52.420;20.896;2023-04-07T03:52:16;6.70;99.90
21189;DHT22;39071;52.420;20.896;2023-04-07T03:54:42;6.70;99.90
21189;DHT22;39071;52.420;20.896;2023-04-07T03:57:08;6.60;99.90
21189;DHT22;39071;52.420;20.896;2023-04-07T03:59:34;6.70;99.90
21189;DHT22;39071;52.420;20.896;2023-04-07T04:02:00;6.70;99.90
21189;DHT22;39071;52.420;20.896;2023-04-07T04:04:26;6.70;99.90
21189;DHT22;39071;52.420;20.896;2023-04-07T04:06:51;6.80;99.90
21189;DHT22;39071;52.420;20.896;2023-04-07T04:09:17;6.80;99.90
21189;DHT22;39071;52.420;20.896;2023-04-07T04:11:43;6.70;99.90
21189;DHT22;39071;52.420;20.896;2023-04-07T04:14:09;6.70;99.90
21189;DHT22;39071;52.420;20.896;2023-04-07T04:16:35;6.80;99.90
21189;DHT22;39071;52.420;20.896;2023-04-07T04:19:01;6.80;99.90
21189;DHT22;39071;52.420;20.896;2023-04-07T04:21:26;6.80;99.90
21189;DHT22;39071;52.420;20.896;2023-04-07T04:23:52;6.80;99.90
21189;DHT22;39071;52.420;20.896;2023-04-07T04:26:18;6.70;99.90
21189;DHT22;39071;52.420;20.896;2023-04-07T04:28:45;6.80;99.90
21189;DHT22;39071;52.420;20.896;2023-04-07T04:31:10;6.80;99.90
21189;DHT22;39071;52.420;20.896;2023-04-07T04:33:36;6.70;99.90
21189;DHT22;39071;52.420;20.896;2023-04-07T04:36:02;6.70;99.90
21189;DHT22;39071;52.420;20.896;2023-04-07T04:38:28;6.70;99.90
21189;DHT22;39071;52.420;20.896;2023-04-07T04:40:53;6.70;99.90
21189;DHT22;39071;52.420;20.896;2023-04-07T04:43:19;6.70;99.90
21189;DHT22;39071;52.420;20.896;2023-04-07T04:45:46;6.70;99.90
21189;DHT22;39071;52.420;20.896;2023-04-07T04:48:11;6.70;99.90
21189;DHT22;39071;52.420;20.896;2023-04-07T04:50:37;6.70;99.90
21189;DHT22;39071;52.420;20.896;2023-04-07T04:53:03;6.80;99.90
21189;DHT22;39071;52.420;20.896;2023-04-07T04:55:28;6.80;99.90
21189;DHT22;39071;52.420;20.896;2023-04-07T04:57:57;6.80;99.90
21189;DHT22;39071;52.420;20.896;2023-04-07T05:00:23;6.80;99.90
21189;DHT22;39071;52.420;20.896;2023-04-07T05:02:49;6.80;99.90
21189;DHT22;39071;52.420;20.896;2023-04-07T05:05:14;6.80;99.90
21189;DHT22;39071;52.420;20.896;2023-04-07T05:07:40;6.80;99.90
21189;DHT22;39071;52.420;20.896;2023-04-07T05:10:07;6.80;99.90
21189;DHT22;39071;52.420;20.896;2023-04-07T05:12:33;6.80;99.90
21189;DHT22;39071;52.420;20.896;2023-04-07T05:14:58;6.80;99.90
21189;DHT22;39071;52.420;20.896;2023-04-07T05:17:24;6.80;99.90
21189;DHT22;39071;52.420;20.896;2023-04-07T05:19:50;6.90;99.90
21189;DHT22;39071;52.420;20.896;2023-04-07T05:22:16;6.80;99.90
21189;DHT22;39071;52.420;20.896;2023-04-07T05:24:41;6.80;99.90
21189;DHT22;39071;52.420;20.896;2023-04-07T05:27:07;6.90;99.90
21189;DHT22;39071;52.420;20.896;2023-04-07T05:29:33;6.90;99.90
21189;DHT22;39071;52.420;20.896;2023-04-07T05:31:58;6.90;99.90
21189;DHT22;39071;52.420;20.896;2023-04-07T05:34:26;6.90;99.90
21189;DHT22;39071;52.420;20.896;2023-04-07T05:36:52;6.90;99.90
21189;DHT22;39071;52.420;20.896;2023-04-07T05:39:18;7.00;99.90
21189;DHT22;39071;52.420;20.896;2023-04-07T05:41:44;7.00;99.90
21189;DHT22;39071;52.420;20.896;2023-04-07T05:44:10;7.10;99.90
21189;DHT22;39071;52.420;20.896;2023-04-07T05:46:35;7.10;99.90
21189;DHT22;39071;52.420;20.896;2023-04-07T05:49:01;7.10;99.90
21189;DHT22;39071;52.420;20.896;2023-04-07T05:51:27;7.10;99.90
21189;DHT22;39071;52.420;20.896;2023-04-07T05:53:53;7.10;99.90
21189;DHT22;39071;52.420;20.896;2023-04-07T05:56:18;7.10;99.90
21189;DHT22;39071;52.420;20.896;2023-04-07T05:58:45;7.10;99.90
21189;DHT22;39071;52.420;20.896;2023-04-07T06:01:11;7.10;99.90
21189;DHT22;39071;52.420;20.896;2023-04-07T06:03:37;7.10;99.90
21189;DHT22;39071;52.420;20.896;2023-04-07T06:06:05;7.10;99.90
21189;DHT22;39071;52.420;20.896;2023-04-07T06:08:31;7.10;99.90
21189;DHT22;39071;52.420;20.896;2023-04-07T06:10:56;7.10;99.90
21189;DHT22;39071;52.420;20.896;2023-04-07T06:13:22;7.20;99.90
21189;DHT22;39071;52.420;20.896;2023-04-07T06:15:48;7.20;99.90
21189;DHT22;39071;52.420;20.896;2023-04-07T06:18:13;7.20;99.90
21189;DHT22;39071;52.420;20.896;2023-04-07T06:20:39;7.30;99.90
21189;DHT22;39071;52.420;20.896;2023-04-07T06:23:05;7.30;99.90
21189;DHT22;39071;52.420;20.896;2023-04-07T06:25:31;7.40;99.90
21189;DHT22;39071;52.420;20.896;2023-04-07T06:27:57;7.40;99.90
21189;DHT22;39071;52.420;20.896;2023-04-07T06:30:23;7.40;99.90
21189;DHT22;39071;52.420;20.896;2023-04-07T06:32:48;7.50;99.90
21189;DHT22;39071;52.420;20.896;2023-04-07T06:35:14;7.50;99.90
21189;DHT22;39071;52.420;20.896;2023-04-07T06:37:40;7.50;99.90
21189;DHT22;39071;52.420;20.896;2023-04-07T06:40:06;7.60;99.90
21189;DHT22;39071;52.420;20.896;2023-04-07T06:42:32;7.60;99.90
21189;DHT22;39071;52.420;20.896;2023-04-07T06:44:58;7.70;99.90
21189;DHT22;39071;52.420;20.896;2023-04-07T06:47:24;7.80;99.90
21189;DHT22;39071;52.420;20.896;2023-04-07T06:49:49;7.90;99.90
21189;DHT22;39071;52.420;20.896;2023-04-07T06:52:15;7.90;99.90
21189;DHT22;39071;52.420;20.896;2023-04-07T06:54:41;7.90;99.90
21189;DHT22;39071;52.420;20.896;2023-04-07T06:57:08;8.00;99.90
21189;DHT22;39071;52.420;20.896;2023-04-07T06:59:39;8.00;99.90
21189;DHT22;39071;52.420;20.896;2023-04-07T07:02:05;8.10;99.90
21189;DHT22;39071;52.420;20.896;2023-04-07T07:04:35;8.10;99.90
21189;DHT22;39071;52.420;20.896;2023-04-07T07:07:01;8.20;99.90
21189;DHT22;39071;52.420;20.896;2023-04-07T07:09:27;8.30;99.90
21189;DHT22;39071;52.420;20.896;2023-04-07T07:11:53;8.30;99.90
21189;DHT22;39071;52.420;20.896;2023-04-07T07:14:19;8.30;99.90
21189;DHT22;39071;52.420;20.896;2023-04-07T07:16:45;8.40;99.90
21189;DHT22;39071;52.420;20.896;2023-04-07T07:19:10;8.50;99.90
21189;DHT22;39071;52.420;20.896;2023-04-07T07:21:36;8.50;99.90
21189;DHT22;39071;52.420;20.896;2023-04-07T07:24:02;8.60;99.90
21189;DHT22;39071;52.420;20.896;2023-04-07T07:26:28;8.60;99.90
21189;DHT22;39071;52.420;20.896;2023-04-07T07:28:53;8.70;99.90
21189;DHT22;39071;52.420;20.896;2023-04-07T07:31:19;8.70;99.90
21189;DHT22;39071;52.420;20.896;2023-04-07T07:33:45;8.70;99.90
21189;DHT22;39071;52.420;20.896;2023-04-07T07:36:13;8.70;99.90
21189;DHT22;39071;52.420;20.896;2023-04-07T07:38:39;8.70;99.90
21189;DHT22;39071;52.420;20.896;2023-04-07T07:41:07;8.70;99.90
21189;DHT22;39071;52.420;20.896;2023-04-07T07:43:33;8.70;99.90
21189;DHT22;39071;52.420;20.896;2023-04-07T07:46:00;8.70;99.90
21189;DHT22;39071;52.420;20.896;2023-04-07T07:48:25;8.80;99.90
21189;DHT22;39071;52.420;20.896;2023-04-07T07:50:51;8.80;99.90
21189;DHT22;39071;52.420;20.896;2023-04-07T07:53:17;8.80;99.90
21189;DHT22;39071;52.420;20.896;2023-04-07T07:55:44;9.00;99.90
21189;DHT22;39071;52.420;20.896;2023-04-07T07:58:11;9.00;99.90
21189;DHT22;39071;52.420;20.896;2023-04-07T08:00:37;8.90;99.90
21189;DHT22;39071;52.420;20.896;2023-04-07T08:03:02;8.90;99.90
21189;DHT22;39071;52.420;20.896;2023-04-07T08:05:28;8.90;99.90
21189;DHT22;39071;52.420;20.896;2023-04-07T08:07:55;9.00;99.90
21189;DHT22;39071;52.420;20.896;2023-04-07T08:10:21;8.90;99.90
21189;DHT22;39071;52.420;20.896;2023-04-07T08:12:47;8.90;99.90
21189;DHT22;39071;52.420;20.896;2023-04-07T08:15:13;8.90;99.90
21189;DHT22;39071;52.420;20.896;2023-04-07T08:17:39;8.80;99.90
21189;DHT22;39071;52.420;20.896;2023-04-07T08:20:07;8.90;99.90
21189;DHT22;39071;52.420;20.896;2023-04-07T08:22:33;8.80;99.90
21189;DHT22;39071;52.420;20.896;2023-04-07T08:24:58;8.80;99.90
21189;DHT22;39071;52.420;20.896;2023-04-07T08:27:24;8.80;99.90
21189;DHT22;39071;52.420;20.896;2023-04-07T08:29:58;8.90;99.90
21189;DHT22;39071;52.420;20.896;2023-04-07T08:32:24;8.90;99.90
21189;DHT22;39071;52.420;20.896;2023-04-07T08:34:50;8.90;99.90
21189;DHT22;39071;52.420;20.896;2023-04-07T08:37:16;8.90;99.90
21189;DHT22;39071;52.420;20.896;2023-04-07T08:39:42;8.90;99.90
21189;DHT22;39071;52.420;20.896;2023-04-07T08:42:07;8.80;99.90
21189;DHT22;39071;52.420;20.896;2023-04-07T08:44:36;8.90;99.90
21189;DHT22;39071;52.420;20.896;2023-04-07T08:47:04;8.90;99.90
21189;DHT22;39071;52.420;20.896;2023-04-07T08:49:32;9.00;99.90
21189;DHT22;39071;52.420;20.896;2023-04-07T08:52:00;9.10;99.90
21189;DHT22;39071;52.420;20.896;2023-04-07T08:54:27;9.20;99.90
21189;DHT22;39071;52.420;20.896;2023-04-07T08:56:53;9.30;99.90
21189;DHT22;39071;52.420;20.896;2023-04-07T08:59:21;9.40;99.90
21189;DHT22;39071;52.420;20.896;2023-04-07T09:01:51;9.50;99.90
21189;DHT22;39071;52.420;20.896;2023-04-07T09:06:48;9.60;99.90
21189;DHT22;39071;52.420;20.896;2023-04-07T09:09:14;9.70;99.90
21189;DHT22;39071;52.420;20.896;2023-04-07T09:11:40;9.70;99.90
21189;DHT22;39071;52.420;20.896;2023-04-07T09:14:06;9.90;99.90
21189;DHT22;39071;52.420;20.896;2023-04-07T09:16:32;10.10;99.90
21189;DHT22;39071;52.420;20.896;2023-04-07T09:18:58;10.20;99.90
21189;DHT22;39071;52.420;20.896;2023-04-07T09:21:24;10.20;99.90
21189;DHT22;39071;52.420;20.896;2023-04-07T09:23:50;10.30;99.90
21189;DHT22;39071;52.420;20.896;2023-04-07T09:26:23;10.30;99.90
21189;DHT22;39071;52.420;20.896;2023-04-07T09:28:56;10.30;99.90
21189;DHT22;39071;52.420;20.896;2023-04-07T09:31:42;10.30;99.90
21189;DHT22;39071;52.420;20.896;2023-04-07T09:34:26;10.50;99.90
21189;DHT22;39071;52.420;20.896;2023-04-07T09:36:53;10.50;99.90
21189;DHT22;39071;52.420;20.896;2023-04-07T09:39:18;10.50;99.90
21189;DHT22;39071;52.420;20.896;2023-04-07T09:41:45;10.70;99.90
21189;DHT22;39071;52.420;20.896;2023-04-07T09:44:11;10.80;99.90
21189;DHT22;39071;52.420;20.896;2023-04-07T09:46:55;11.00;99.90
21189;DHT22;39071;52.420;20.896;2023-04-07T09:49:22;11.10;99.90
21189;DHT22;39071;52.420;20.896;2023-04-07T09:52:02;11.00;99.90
21189;DHT22;39071;52.420;20.896;2023-04-07T09:54:38;11.10;99.90
21189;DHT22;39071;52.420;20.896;2023-04-07T09:57:06;11.30;99.90
21189;DHT22;39071;52.420;20.896;2023-04-07T09:59:33;11.30;99.90
21189;DHT22;39071;52.420;20.896;2023-04-07T10:02:00;11.20;99.90
21189;DHT22;39071;52.420;20.896;2023-04-07T10:04:27;11.50;99.90
21189;DHT22;39071;52.420;20.896;2023-04-07T10:06:54;11.60;99.90
21189;DHT22;39071;52.420;20.896;2023-04-07T10:09:25;11.80;99.90
21189;DHT22;39071;52.420;20.896;2023-04-07T10:11:52;11.90;99.90
21189;DHT22;39071;52.420;20.896;2023-04-07T10:14:20;11.90;99.90
21189;DHT22;39071;52.420;20.896;2023-04-07T10:16:46;12.00;99.90
21189;DHT22;39071;52.420;20.896;2023-04-07T10:19:13;12.10;99.90
21189;DHT22;39071;52.420;20.896;2023-04-07T10:21:40;12.00;99.90
21189;DHT22;39071;52.420;20.896;2023-04-07T10:26:56;11.90;99.90
21189;DHT22;39071;52.420;20.896;2023-04-07T10:29:24;11.90;99.90
21189;DHT22;39071;52.420;20.896;2023-04-07T10:31:50;11.80;99.90
21189;DHT22;39071;52.420;20.896;2023-04-07T10:34:19;11.80;99.90
21189;DHT22;39071;52.420;20.896;2023-04-07T10:37:12;11.80;99.90
21189;DHT22;39071;52.420;20.896;2023-04-07T10:39:39;11.80;99.90
21189;DHT22;39071;52.420;20.896;2023-04-07T10:42:05;11.90;99.90
21189;DHT22;39071;52.420;20.896;2023-04-07T10:47:05;11.80;99.90
21189;DHT22;39071;52.420;20.896;2023-04-07T10:49:34;11.90;99.90
21189;DHT22;39071;52.420;20.896;2023-04-07T10:54:39;12.00;99.90
21189;DHT22;39071;52.420;20.896;2023-04-07T10:57:11;12.00;99.90
21189;DHT22;39071;52.420;20.896;2023-04-07T11:02:43;11.90;99.90
21189;DHT22;39071;52.420;20.896;2023-04-07T11:05:19;11.90;99.90
21189;DHT22;39071;52.420;20.896;2023-04-07T11:08:13;11.90;99.90
21189;DHT22;39071;52.420;20.896;2023-04-07T11:10:38;12.00;99.90
21189;DHT22;39071;52.420;20.896;2023-04-07T11:13:07;12.10;99.90
21189;DHT22;39071;52.420;20.896;2023-04-07T11:15:35;12.00;99.90
21189;DHT22;39071;52.420;20.896;2023-04-07T11:18:15;12.10;99.90
21189;DHT22;39071;52.420;20.896;2023-04-07T11:20:52;12.20;99.90
21189;DHT22;39071;52.420;20.896;2023-04-07T11:23:39;12.20;99.90
21189;DHT22;39071;52.420;20.896;2023-04-07T11:26:06;12.20;99.90
21189;DHT22;39071;52.420;20.896;2023-04-07T11:28:33;12.00;99.90
21189;DHT22;39071;52.420;20.896;2023-04-07T11:30:59;12.00;99.90
21189;DHT22;39071;52.420;20.896;2023-04-07T11:33:26;12.00;99.90
21189;DHT22;39071;52.420;20.896;2023-04-07T11:36:01;11.90;99.90
21189;DHT22;39071;52.420;20.896;2023-04-07T11:38:29;12.00;99.90
21189;DHT22;39071;52.420;20.896;2023-04-07T11:40:56;12.00;99.90
21189;DHT22;39071;52.420;20.896;2023-04-07T11:43:25;11.90;99.90
21189;DHT22;39071;52.420;20.896;2023-04-07T11:46:04;12.00;99.90
21189;DHT22;39071;52.420;20.896;2023-04-07T11:48:31;11.90;99.90
21189;DHT22;39071;52.420;20.896;2023-04-07T11:50:58;11.90;99.90
21189;DHT22;39071;52.420;20.896;2023-04-07T11:53:29;11.90;99.90
21189;DHT22;39071;52.420;20.896;2023-04-07T11:56:06;11.90;99.90
21189;DHT22;39071;52.420;20.896;2023-04-07T11:58:37;11.90;99.90
21189;DHT22;39071;52.420;20.896;2023-04-07T12:01:05;11.90;99.90
21189;DHT22;39071;52.420;20.896;2023-04-07T12:03:35;11.90;99.90
21189;DHT22;39071;52.420;20.896;2023-04-07T12:06:04;11.90;99.90
21189;DHT22;39071;52.420;20.896;2023-04-07T12:08:41;11.90;99.90
21189;DHT22;39071;52.420;20.896;2023-04-07T12:11:07;11.80;99.90
21189;DHT22;39071;52.420;20.896;2023-04-07T12:13:35;11.90;99.90
21189;DHT22;39071;52.420;20.896;2023-04-07T12:16:01;11.90;99.90
21189;DHT22;39071;52.420;20.896;2023-04-07T12:18:27;12.00;99.90
21189;DHT22;39071;52.420;20.896;2023-04-07T12:20:54;12.00;99.90
21189;DHT22;39071;52.420;20.896;2023-04-07T12:23:21;12.10;99.90
21189;DHT22;39071;52.420;20.896;2023-04-07T12:25:47;12.20;99.90
21189;DHT22;39071;52.420;20.896;2023-04-07T12:28:13;12.30;99.90
21189;DHT22;39071;52.420;20.896;2023-04-07T12:30:39;12.40;99.90
21189;DHT22;39071;52.420;20.896;2023-04-07T12:33:05;12.50;99.90
21189;DHT22;39071;52.420;20.896;2023-04-07T12:35:30;12.40;99.90
21189;DHT22;39071;52.420;20.896;2023-04-07T12:37:56;12.40;99.90
21189;DHT22;39071;52.420;20.896;2023-04-07T12:40:23;12.50;99.90
21189;DHT22;39071;52.420;20.896;2023-04-07T12:42:49;12.50;99.90
21189;DHT22;39071;52.420;20.896;2023-04-07T12:45:15;12.50;99.90
21189;DHT22;39071;52.420;20.896;2023-04-07T12:47:43;12.50;99.90
21189;DHT22;39071;52.420;20.896;2023-04-07T12:50:09;12.40;99.90
21189;DHT22;39071;52.420;20.896;2023-04-07T12:52:36;12.40;99.90
21189;DHT22;39071;52.420;20.896;2023-04-07T12:55:02;12.20;99.90
21189;DHT22;39071;52.420;20.896;2023-04-07T12:57:27;12.10;99.90
21189;DHT22;39071;52.420;20.896;2023-04-07T12:59:53;12.00;99.90
21189;DHT22;39071;52.420;20.896;2023-04-07T13:02:19;12.00;99.90
21189;DHT22;39071;52.420;20.896;2023-04-07T13:04:46;11.80;99.90
21189;DHT22;39071;52.420;20.896;2023-04-07T13:07:12;11.70;99.90
21189;DHT22;39071;52.420;20.896;2023-04-07T13:09:39;11.70;99.90
21189;DHT22;39071;52.420;20.896;2023-04-07T13:12:09;11.50;99.90
21189;DHT22;39071;52.420;20.896;2023-04-07T13:14:39;11.50;99.90
21189;DHT22;39071;52.420;20.896;2023-04-07T13:17:05;11.30;99.90
21189;DHT22;39071;52.420;20.896;2023-04-07T13:19:33;11.20;99.90
21189;DHT22;39071;52.420;20.896;2023-04-07T13:21:59;11.10;99.90
21189;DHT22;39071;52.420;20.896;2023-04-07T13:24:25;11.00;99.90
21189;DHT22;39071;52.420;20.896;2023-04-07T13:26:51;10.90;99.90
21189;DHT22;39071;52.420;20.896;2023-04-07T13:29:18;10.80;99.90
21189;DHT22;39071;52.420;20.896;2023-04-07T13:31:47;10.90;99.90
21189;DHT22;39071;52.420;20.896;2023-04-07T13:34:13;10.80;99.90
21189;DHT22;39071;52.420;20.896;2023-04-07T13:36:40;10.80;99.90
21189;DHT22;39071;52.420;20.896;2023-04-07T13:39:06;10.80;99.90
21189;DHT22;39071;52.420;20.896;2023-04-07T13:41:32;10.70;99.90
21189;DHT22;39071;52.420;20.896;2023-04-07T13:43:59;10.80;99.90
21189;DHT22;39071;52.420;20.896;2023-04-07T13:46:26;10.90;99.90
21189;DHT22;39071;52.420;20.896;2023-04-07T13:48:52;10.90;99.90
21189;DHT22;39071;52.420;20.896;2023-04-07T13:51:18;10.90;99.90
21189;DHT22;39071;52.420;20.896;2023-04-07T13:53:44;11.00;99.90
21189;DHT22;39071;52.420;20.896;2023-04-07T13:56:10;11.10;99.90
21189;DHT22;39071;52.420;20.896;2023-04-07T13:58:36;11.30;99.90
21189;DHT22;39071;52.420;20.896;2023-04-07T14:01:03;11.40;99.90
21189;DHT22;39071;52.420;20.896;2023-04-07T14:03:29;11.50;99.90
21189;DHT22;39071;52.420;20.896;2023-04-07T14:05:55;11.50;99.90
21189;DHT22;39071;52.420;20.896;2023-04-07T14:08:26;11.60;99.90
21189;DHT22;39071;52.420;20.896;2023-04-07T14:10:52;11.70;99.90
21189;DHT22;39071;52.420;20.896;2023-04-07T14:13:18;11.80;99.90
21189;DHT22;39071;52.420;20.896;2023-04-07T14:15:44;11.90;99.90
21189;DHT22;39071;52.420;20.896;2023-04-07T14:18:10;12.00;99.90
21189;DHT22;39071;52.420;20.896;2023-04-07T14:20:36;12.00;99.90
21189;DHT22;39071;52.420;20.896;2023-04-07T14:23:02;11.80;99.90
21189;DHT22;39071;52.420;20.896;2023-04-07T14:25:28;11.70;99.90
21189;DHT22;39071;52.420;20.896;2023-04-07T14:27:53;11.70;99.90
21189;DHT22;39071;52.420;20.896;2023-04-07T14:30:19;11.60;99.90
21189;DHT22;39071;52.420;20.896;2023-04-07T14:32:45;11.60;99.90
21189;DHT22;39071;52.420;20.896;2023-04-07T14:35:11;11.50;99.90
21189;DHT22;39071;52.420;20.896;2023-04-07T14:37:37;11.30;99.90
21189;DHT22;39071;52.420;20.896;2023-04-07T14:40:04;11.40;99.90
21189;DHT22;39071;52.420;20.896;2023-04-07T14:42:30;11.40;99.90
21189;DHT22;39071;52.420;20.896;2023-04-07T14:44:57;11.30;99.90
21189;DHT22;39071;52.420;20.896;2023-04-07T14:47:23;11.30;99.90
21189;DHT22;39071;52.420;20.896;2023-04-07T14:49:50;11.30;99.90
21189;DHT22;39071;52.420;20.896;2023-04-07T14:52:16;11.30;99.90
21189;DHT22;39071;52.420;20.896;2023-04-07T14:54:42;11.30;99.90
21189;DHT22;39071;52.420;20.896;2023-04-07T14:57:08;11.20;99.90
21189;DHT22;39071;52.420;20.896;2023-04-07T14:59:34;11.30;99.90
21189;DHT22;39071;52.420;20.896;2023-04-07T15:02:00;11.40;99.90
21189;DHT22;39071;52.420;20.896;2023-04-07T15:04:25;11.40;99.90
21189;DHT22;39071;52.420;20.896;2023-04-07T15:06:51;11.50;99.90
21189;DHT22;39071;52.420;20.896;2023-04-07T15:09:17;11.50;99.90
21189;DHT22;39071;52.420;20.896;2023-04-07T15:11:43;11.40;99.90
21189;DHT22;39071;52.420;20.896;2023-04-07T15:14:11;11.40;99.90
21189;DHT22;39071;52.420;20.896;2023-04-07T15:16:37;11.40;99.90
21189;DHT22;39071;52.420;20.896;2023-04-07T15:19:02;11.40;1.00
21189;DHT22;39071;52.420;20.896;2023-04-07T15:21:28;11.40;99.90
21189;DHT22;39071;52.420;20.896;2023-04-07T15:23:54;11.30;1.00
21189;DHT22;39071;52.420;20.896;2023-04-07T15:26:20;11.20;1.00
21189;DHT22;39071;52.420;20.896;2023-04-07T15:28:46;11.30;99.90
21189;DHT22;39071;52.420;20.896;2023-04-07T15:31:12;11.20;14.00
21189;DHT22;39071;52.420;20.896;2023-04-07T15:33:39;11.20;99.90
21189;DHT22;39071;52.420;20.896;2023-04-07T15:36:06;11.00;1.00
21189;DHT22;39071;52.420;20.896;2023-04-07T15:38:32;11.10;1.00
21189;DHT22;39071;52.420;20.896;2023-04-07T15:40:58;11.10;1.00
21189;DHT22;39071;52.420;20.896;2023-04-07T15:43:24;11.00;99.90
21189;DHT22;39071;52.420;20.896;2023-04-07T15:45:50;11.10;1.00